createdAt,value
2023-05-03T00:00:26.303Z,23.81
2023-05-03T00:01:29.504Z,23.81
2023-05-03T00:02:32.823Z,23.81
2023-05-03T00:03:36.130Z,23.81
2023-05-03T00:04:39.250Z,23.81
2023-05-03T00:05:42.550Z,23.81
2023-05-03T00:06:45.850Z,23.87
2023-05-03T00:07:49.120Z,23.87
2023-05-03T00:08:52.596Z,23.81
2023-05-03T00:09:56.050Z,23.81
2023-05-03T00:10:59.113Z,23.81
2023-05-03T00:12:01.526Z,23.81
2023-05-03T00:13:04.730Z,23.81
2023-05-03T00:14:08.047Z,23.81
2023-05-03T00:15:10.419Z,23.81
2023-05-03T00:16:12.750Z,23.81
2023-05-03T00:17:15.815Z,23.81
2023-05-03T00:18:19.330Z,23.75
2023-05-03T00:19:22.528Z,23.81
2023-05-03T00:20:25.810Z,23.81
2023-05-03T00:21:29.182Z,23.75
2023-05-03T00:22:32.406Z,23.81
2023-05-03T00:23:35.714Z,23.81
2023-05-03T00:24:38.947Z,23.81
2023-05-03T00:25:42.313Z,23.81
2023-05-03T00:26:45.539Z,23.75
2023-05-03T00:27:48.968Z,23.75
2023-05-03T00:28:52.035Z,23.75
2023-05-03T00:29:54.519Z,23.81
2023-05-03T00:30:57.744Z,23.81
2023-05-03T00:32:01.100Z,23.81
2023-05-03T00:33:04.231Z,23.81
2023-05-03T00:34:07.579Z,23.81
2023-05-03T00:35:10.929Z,23.81
2023-05-03T00:36:14.164Z,23.81
2023-05-03T00:37:16.590Z,23.81
2023-05-03T00:38:18.856Z,23.75
2023-05-03T00:39:21.154Z,23.75
2023-05-03T00:40:23.320Z,23.81
2023-05-03T00:41:25.741Z,23.75
2023-05-03T00:42:28.127Z,23.75
2023-05-03T00:43:31.441Z,23.75
2023-05-03T00:44:34.682Z,23.75
2023-05-03T00:45:37.979Z,23.75
2023-05-03T00:46:41.296Z,23.75
2023-05-03T00:47:44.555Z,23.75
2023-05-03T00:48:47.827Z,23.75
2023-05-03T00:49:51.009Z,23.75
2023-05-03T00:50:54.486Z,23.75
2023-05-03T00:51:57.581Z,23.75
2023-05-03T00:53:01.073Z,23.75
2023-05-03T00:54:04.292Z,23.75
2023-05-03T00:55:07.655Z,23.75
2023-05-03T00:56:09.912Z,23.75
2023-05-03T00:57:13.056Z,23.75
2023-05-03T00:58:16.526Z,23.75
2023-05-03T00:59:19.709Z,23.75
2023-05-03T01:00:22.930Z,23.75
2023-05-03T01:01:26.363Z,23.75
2023-05-03T01:02:29.522Z,23.75
2023-05-03T01:03:31.966Z,23.75
2023-05-03T01:04:34.287Z,23.75
2023-05-03T01:05:37.594Z,23.75
2023-05-03T01:06:39.746Z,23.75
2023-05-03T01:07:42.067Z,23.68
2023-05-03T01:08:45.475Z,23.75
2023-05-03T01:09:48.785Z,23.75
2023-05-03T01:10:52.019Z,23.75
2023-05-03T01:11:55.222Z,23.75
2023-05-03T01:12:58.501Z,23.75
2023-05-03T01:14:01.931Z,23.75
2023-05-03T01:15:05.170Z,23.75
2023-05-03T01:16:08.507Z,23.75
2023-05-03T01:17:11.673Z,23.68
2023-05-03T01:18:15.104Z,23.75
2023-05-03T01:19:18.359Z,23.75
2023-05-03T01:20:21.557Z,23.68
2023-05-03T01:21:23.897Z,23.75
2023-05-03T01:22:27.145Z,23.75
2023-05-03T01:23:30.501Z,23.75
2023-05-03T01:24:33.839Z,23.75
2023-05-03T01:25:37.134Z,23.75
2023-05-03T01:26:40.444Z,23.68
2023-05-03T01:27:43.736Z,23.75
2023-05-03T01:28:46.139Z,23.68
2023-05-03T01:29:48.398Z,23.75
2023-05-03T01:30:50.540Z,23.68
2023-05-03T01:31:52.928Z,23.68
2023-05-03T01:32:56.241Z,23.75
2023-05-03T01:33:59.420Z,23.75
2023-05-03T01:35:02.895Z,23.75
2023-05-03T01:36:06.194Z,23.75
2023-05-03T01:37:09.787Z,23.75
2023-05-03T01:38:12.977Z,23.75
2023-05-03T01:39:16.265Z,23.75
2023-05-03T01:40:19.577Z,23.75
2023-05-03T01:41:22.903Z,23.75
2023-05-03T01:42:26.233Z,23.68
2023-05-03T01:43:29.578Z,23.75
2023-05-03T01:44:32.894Z,23.75
2023-05-03T01:45:35.031Z,23.75
2023-05-03T01:46:38.475Z,23.68
2023-05-03T01:47:41.781Z,23.75
2023-05-03T01:48:45.058Z,23.68
2023-05-03T01:49:48.247Z,23.68
2023-05-03T01:50:51.695Z,23.75
2023-05-03T01:51:54.949Z,23.68
2023-05-03T01:52:57.166Z,23.75
2023-05-03T01:53:59.401Z,23.75
2023-05-03T01:55:01.794Z,23.75
2023-05-03T01:56:04.158Z,23.75
2023-05-03T01:57:07.344Z,23.75
2023-05-03T01:58:10.765Z,23.75
2023-05-03T01:59:14.043Z,23.75
2023-05-03T02:00:17.204Z,23.75
2023-05-03T02:01:20.596Z,23.81
2023-05-03T02:02:23.861Z,23.75
2023-05-03T02:03:27.082Z,23.75
2023-05-03T02:04:30.421Z,23.75
2023-05-03T02:05:33.800Z,23.75
2023-05-03T02:06:37.168Z,23.75
2023-05-03T02:07:40.388Z,23.75
2023-05-03T02:08:43.705Z,23.75
2023-05-03T02:09:45.987Z,23.81
2023-05-03T02:10:49.141Z,23.75
2023-05-03T02:11:52.611Z,23.81
2023-05-03T02:12:55.731Z,23.81
2023-05-03T02:15:02.353Z,23.75
2023-05-03T02:16:05.615Z,23.75
2023-05-03T02:17:08.962Z,23.75
2023-05-03T02:18:11.222Z,23.75
2023-05-03T02:19:13.512Z,23.75
2023-05-03T02:20:15.897Z,23.75
2023-05-03T02:21:18.280Z,23.75
2023-05-03T02:22:21.415Z,23.75
2023-05-03T02:23:24.840Z,23.75
2023-05-03T02:24:28.117Z,23.75
2023-05-03T02:25:31.381Z,23.68
2023-05-03T02:26:34.630Z,23.75
2023-05-03T02:27:37.979Z,23.75
2023-05-03T02:28:41.252Z,23.75
2023-05-03T02:30:47.816Z,23.68
2023-05-03T02:31:51.120Z,23.68
2023-05-03T02:32:54.322Z,23.68
2023-05-03T02:33:57.618Z,23.75
2023-05-03T02:35:00.058Z,23.75
2023-05-03T02:36:03.223Z,23.75
2023-05-03T02:37:06.558Z,23.68
2023-05-03T02:38:10.227Z,23.75
2023-05-03T02:39:13.466Z,23.75
2023-05-03T02:41:20.034Z,23.68
2023-05-03T02:42:22.393Z,23.75
2023-05-03T02:43:24.540Z,23.75
2023-05-03T02:44:27.980Z,23.75
2023-05-03T02:45:31.213Z,23.68
2023-05-03T02:46:34.411Z,23.75
2023-05-03T02:47:37.683Z,23.75
2023-05-03T02:48:40.992Z,23.75
2023-05-03T02:49:44.430Z,23.75
2023-05-03T02:50:47.648Z,23.75
2023-05-03T02:51:50.981Z,23.68
2023-05-03T02:52:54.228Z,23.75
2023-05-03T02:53:56.600Z,23.75
2023-05-03T02:54:58.758Z,23.75
2023-05-03T02:56:02.041Z,23.75
2023-05-03T02:57:05.354Z,23.75
2023-05-03T02:58:08.824Z,23.75
2023-05-03T02:59:12.059Z,23.68
2023-05-03T03:00:15.379Z,23.75
2023-05-03T03:01:18.570Z,23.75
2023-05-03T03:02:21.963Z,23.75
2023-05-03T03:03:25.157Z,23.75
2023-05-03T03:04:28.504Z,23.75
2023-05-03T03:05:31.722Z,23.75
2023-05-03T03:07:38.272Z,23.75
2023-05-03T03:08:40.773Z,23.75
2023-05-03T03:09:43.971Z,23.68
2023-05-03T03:10:47.158Z,23.75
2023-05-03T03:11:50.555Z,23.68
2023-05-03T03:12:53.898Z,23.68
2023-05-03T03:13:57.050Z,23.68
2023-05-03T03:15:00.434Z,23.68
2023-05-03T03:16:03.694Z,23.75
2023-05-03T03:17:06.011Z,23.68
2023-05-03T03:18:08.239Z,23.68
2023-05-03T03:19:10.563Z,23.68
2023-05-03T03:20:13.277Z,23.68
2023-05-03T03:21:16.747Z,23.68
2023-05-03T03:22:20.019Z,23.68
2023-05-03T03:23:23.354Z,23.62
2023-05-03T03:24:26.461Z,23.68
2023-05-03T03:25:29.784Z,23.68
2023-05-03T03:26:33.173Z,23.68
2023-05-03T03:27:36.444Z,23.68
2023-05-03T03:28:39.664Z,23.68
2023-05-03T03:29:41.952Z,23.68
2023-05-03T03:30:45.341Z,23.62
2023-05-03T03:31:48.550Z,23.68
2023-05-03T03:32:51.927Z,23.68
2023-05-03T03:33:55.257Z,23.68
2023-05-03T03:34:58.493Z,23.68
2023-05-03T03:36:01.678Z,23.68
2023-05-03T03:37:04.977Z,23.68
2023-05-03T03:38:08.269Z,23.68
2023-05-03T03:39:11.640Z,23.62
2023-05-03T03:40:14.859Z,23.68
2023-05-03T03:41:17.336Z,23.68
2023-05-03T03:42:19.510Z,23.68
2023-05-03T03:43:21.922Z,23.68
2023-05-03T03:44:24.094Z,23.68
2023-05-03T03:45:27.382Z,23.68
2023-05-03T03:46:30.770Z,23.68
2023-05-03T03:47:34.040Z,23.68
2023-05-03T03:48:37.350Z,23.68
2023-05-03T03:49:40.588Z,23.68
2023-05-03T03:50:43.845Z,23.68
2023-05-03T03:51:47.266Z,23.62
2023-05-03T03:52:50.518Z,23.68
2023-05-03T03:53:53.726Z,23.75
2023-05-03T03:54:57.158Z,23.68
2023-05-03T03:56:00.456Z,23.68
2023-05-03T03:57:03.709Z,23.68
2023-05-03T03:58:05.926Z,23.68
2023-05-03T03:59:09.190Z,23.68
2023-05-03T04:00:12.654Z,23.68
2023-05-03T04:01:15.955Z,23.68
2023-05-03T04:02:19.197Z,23.75
2023-05-03T04:03:22.384Z,23.68
2023-05-03T04:04:25.728Z,23.68
2023-05-03T04:05:28.070Z,23.75
2023-05-03T04:06:30.381Z,23.68
2023-05-03T04:07:32.697Z,23.62
2023-05-03T04:08:35.132Z,23.68
2023-05-03T04:09:38.219Z,23.68
2023-05-03T04:10:41.546Z,23.75
2023-05-03T04:11:44.831Z,23.68
2023-05-03T04:12:48.066Z,23.62
2023-05-03T04:13:51.449Z,23.62
2023-05-03T04:14:54.648Z,23.68
2023-05-03T04:15:58.082Z,23.62
2023-05-03T04:17:01.408Z,23.62
2023-05-03T04:18:04.634Z,23.62
2023-05-03T04:19:07.816Z,23.68
2023-05-03T04:20:11.182Z,23.68
2023-05-03T04:21:14.429Z,23.68
2023-05-03T04:22:16.741Z,23.68
2023-05-03T04:23:20.122Z,23.68
2023-05-03T04:24:23.428Z,23.68
2023-05-03T04:25:26.663Z,23.68
2023-05-03T04:26:29.971Z,23.68
2023-05-03T04:27:33.252Z,23.68
2023-05-03T04:28:36.558Z,23.68
2023-05-03T04:29:38.929Z,23.68
2023-05-03T04:30:41.162Z,23.68
2023-05-03T04:31:43.385Z,23.68
2023-05-03T04:32:45.748Z,23.62
2023-05-03T04:33:49.014Z,23.68
2023-05-03T04:34:52.275Z,23.68
2023-05-03T04:35:55.646Z,23.68
2023-05-03T04:36:58.877Z,23.68
2023-05-03T04:38:02.148Z,23.68
2023-05-03T04:39:05.564Z,23.75
2023-05-03T04:40:08.898Z,23.68
2023-05-03T04:41:12.151Z,23.68
2023-05-03T04:42:15.408Z,23.68
2023-05-03T04:43:18.750Z,23.68
2023-05-03T04:44:22.110Z,23.68
2023-05-03T04:45:25.199Z,23.68
2023-05-03T04:46:27.509Z,23.68
2023-05-03T04:47:30.917Z,23.68
2023-05-03T04:48:34.167Z,23.68
2023-05-03T04:49:37.385Z,23.62
2023-05-03T04:50:40.851Z,23.68
2023-05-03T04:51:44.037Z,23.68
2023-05-03T04:52:47.387Z,23.68
2023-05-03T04:53:49.799Z,23.68
2023-05-03T04:54:52.060Z,23.68
2023-05-03T04:55:54.321Z,23.68
2023-05-03T04:56:56.497Z,23.68
2023-05-03T04:57:59.784Z,23.68
2023-05-03T04:59:03.080Z,23.68
2023-05-03T05:00:06.389Z,23.68
2023-05-03T05:01:09.733Z,23.62
2023-05-03T05:02:13.045Z,23.68
2023-05-03T05:03:16.277Z,23.68
2023-05-03T05:04:19.625Z,23.68
2023-05-03T05:05:22.843Z,23.68
2023-05-03T05:06:26.265Z,23.68
2023-05-03T05:07:29.422Z,23.68
2023-05-03T05:08:32.925Z,23.68
2023-05-03T05:09:36.201Z,23.68
2023-05-03T05:10:38.454Z,23.68
2023-05-03T05:11:41.760Z,23.68
2023-05-03T05:12:44.960Z,23.68
2023-05-03T05:13:48.212Z,23.68
2023-05-03T05:14:51.656Z,23.68
2023-05-03T05:15:54.766Z,23.68
2023-05-03T05:16:58.197Z,23.68
2023-05-03T05:18:00.530Z,23.68
2023-05-03T05:19:02.673Z,23.68
2023-05-03T05:20:05.173Z,23.68
2023-05-03T05:22:10.596Z,23.68
2023-05-03T05:23:14.284Z,23.68
2023-05-03T05:24:17.484Z,23.68
2023-05-03T05:25:20.758Z,23.68
2023-05-03T05:26:24.056Z,23.68
2023-05-03T05:27:27.392Z,23.75
2023-05-03T05:28:30.645Z,23.75
2023-05-03T05:29:34.093Z,23.75
2023-05-03T05:30:37.368Z,23.68
2023-05-03T05:31:40.646Z,23.68
2023-05-03T05:32:43.957Z,23.68
2023-05-03T05:33:47.293Z,23.75
2023-05-03T05:34:49.410Z,23.68
2023-05-03T05:35:52.806Z,23.68
2023-05-03T05:36:56.148Z,23.68
2023-05-03T05:37:59.381Z,23.68
2023-05-03T05:39:02.749Z,23.75
2023-05-03T05:40:05.993Z,23.68
2023-05-03T05:41:09.337Z,23.68
2023-05-03T05:42:12.463Z,23.68
2023-05-03T05:43:14.946Z,23.68
2023-05-03T05:44:17.165Z,23.68
2023-05-03T05:45:20.480Z,23.68
2023-05-03T05:46:22.743Z,23.68
2023-05-03T05:48:28.284Z,23.68
2023-05-03T05:49:31.574Z,23.68
2023-05-03T05:50:34.839Z,23.68
2023-05-03T05:51:38.286Z,23.68
2023-05-03T05:52:41.560Z,23.62
2023-05-03T05:53:44.803Z,23.62
2023-05-03T05:54:48.088Z,23.68
2023-05-03T05:55:51.319Z,23.68
2023-05-03T05:56:54.817Z,23.62
2023-05-03T05:57:58.125Z,23.68
2023-05-03T05:59:01.191Z,23.68
2023-05-03T06:00:04.543Z,23.62
2023-05-03T06:01:06.864Z,23.62
2023-05-03T06:02:10.107Z,23.62
2023-05-03T06:03:13.426Z,23.62
2023-05-03T06:04:16.770Z,23.62
2023-05-03T06:05:19.962Z,23.68
2023-05-03T06:06:23.298Z,23.68
2023-05-03T06:07:26.759Z,23.68
2023-05-03T06:08:29.878Z,23.68
2023-05-03T06:09:32.162Z,23.62
2023-05-03T06:10:34.602Z,23.68
2023-05-03T06:11:36.813Z,23.62
2023-05-03T06:12:39.070Z,23.62
2023-05-03T06:13:42.486Z,23.68
2023-05-03T06:14:45.677Z,23.75
2023-05-03T06:15:49.096Z,23.68
2023-05-03T06:16:53.009Z,23.62
2023-05-03T06:17:55.597Z,23.62
2023-05-03T06:18:58.837Z,23.68
2023-05-03T06:20:02.328Z,23.62
2023-05-03T06:21:05.578Z,23.62
2023-05-03T06:22:08.703Z,23.62
2023-05-03T06:23:11.988Z,23.68
2023-05-03T06:24:15.288Z,23.62
2023-05-03T06:25:18.767Z,23.62
2023-05-03T06:26:21.061Z,23.62
2023-05-03T06:27:24.359Z,23.62
2023-05-03T06:28:27.533Z,23.62
2023-05-03T06:29:30.814Z,23.62
2023-05-03T06:30:34.070Z,23.62
2023-05-03T06:31:37.471Z,23.62
2023-05-03T06:32:40.711Z,23.56
2023-05-03T06:33:42.959Z,23.62
2023-05-03T06:34:45.259Z,23.62
2023-05-03T06:35:47.584Z,23.62
2023-05-03T06:36:49.952Z,23.62
2023-05-03T06:37:53.286Z,23.62
2023-05-03T06:38:56.469Z,23.62
2023-05-03T06:39:59.836Z,23.68
2023-05-03T06:41:03.334Z,23.68
2023-05-03T06:42:06.352Z,23.68
2023-05-03T06:43:09.693Z,23.62
2023-05-03T06:44:13.027Z,23.62
2023-05-03T06:45:16.369Z,23.62
2023-05-03T06:46:19.534Z,23.62
2023-05-03T06:47:22.938Z,23.62
2023-05-03T06:48:26.093Z,23.62
2023-05-03T06:49:29.540Z,23.62
2023-05-03T06:50:31.703Z,23.5
2023-05-03T06:51:35.114Z,23.5
2023-05-03T06:52:38.299Z,23.5
2023-05-03T06:53:41.698Z,23.43
2023-05-03T06:54:44.966Z,23.5
2023-05-03T06:55:48.309Z,23.43
2023-05-03T06:56:51.471Z,23.5
2023-05-03T06:57:53.922Z,23.43
2023-05-03T06:58:56.081Z,23.37
2023-05-03T06:59:58.411Z,23.43
2023-05-03T07:01:00.836Z,23.43
2023-05-03T07:02:04.065Z,23.37
2023-05-03T07:03:07.387Z,23.37
2023-05-03T07:04:10.732Z,23.43
2023-05-03T07:05:13.877Z,23.43
2023-05-03T07:06:17.243Z,23.37
2023-05-03T07:07:20.498Z,23.37
2023-05-03T07:08:23.793Z,23.43
2023-05-03T07:09:27.117Z,23.37
2023-05-03T07:10:30.342Z,23.37
2023-05-03T07:11:33.643Z,23.37
2023-05-03T07:12:36.915Z,23.43
2023-05-03T07:13:40.269Z,23.37
2023-05-03T07:14:42.573Z,23.31
2023-05-03T07:15:45.926Z,23.37
2023-05-03T07:16:49.263Z,23.37
2023-05-03T07:17:52.465Z,23.31
2023-05-03T07:18:55.799Z,23.37
2023-05-03T07:19:59.034Z,23.37
2023-05-03T07:21:02.328Z,23.31
2023-05-03T07:22:04.881Z,23.31
2023-05-03T07:23:06.887Z,23.31
2023-05-03T07:24:10.247Z,23.31
2023-05-03T07:25:12.515Z,23.31
2023-05-03T07:26:14.851Z,23.31
2023-05-03T07:27:18.151Z,23.31
2023-05-03T07:28:21.515Z,23.31
2023-05-03T07:29:24.753Z,23.25
2023-05-03T07:30:28.018Z,23.31
2023-05-03T07:31:31.390Z,23.31
2023-05-03T07:32:34.657Z,23.25
2023-05-03T07:33:37.960Z,23.25
2023-05-03T07:34:41.296Z,23.18
2023-05-03T07:35:44.612Z,23.25
2023-05-03T07:36:47.757Z,23.18
2023-05-03T07:37:51.237Z,23.25
2023-05-03T07:38:54.350Z,23.18
2023-05-03T07:39:56.649Z,23.18
2023-05-03T07:40:59.991Z,23.18
2023-05-03T07:42:03.269Z,23.12
2023-05-03T07:43:06.699Z,23.12
2023-05-03T07:44:09.829Z,23.12
2023-05-03T07:45:13.216Z,23.06
2023-05-03T07:46:16.479Z,23.12
2023-05-03T07:47:18.777Z,23.12
2023-05-03T07:48:21.047Z,23.06
2023-05-03T07:49:23.472Z,23.12
2023-05-03T07:50:25.647Z,23.12
2023-05-03T07:51:29.044Z,23.12
2023-05-03T07:52:32.305Z,23.12
2023-05-03T07:53:35.655Z,23.12
2023-05-03T07:54:38.889Z,23.06
2023-05-03T07:55:42.109Z,23.12
2023-05-03T07:56:45.469Z,23.12
2023-05-03T07:57:48.706Z,23.18
2023-05-03T07:58:52.168Z,23.06
2023-05-03T07:59:55.263Z,23.06
2023-05-03T08:00:58.564Z,23.06
2023-05-03T08:02:01.871Z,23.06
2023-05-03T08:03:05.158Z,23.12
2023-05-03T08:04:07.575Z,23.12
2023-05-03T08:05:10.751Z,23.06
2023-05-03T08:06:14.115Z,23.06
2023-05-03T08:07:17.427Z,23.06
2023-05-03T08:08:20.644Z,23.06
2023-05-03T08:09:23.968Z,23.06
2023-05-03T08:10:27.220Z,23
2023-05-03T08:11:29.525Z,23.06
2023-05-03T08:12:31.904Z,23.06
2023-05-03T08:13:34.145Z,23.06
2023-05-03T08:14:36.464Z,23.06
2023-05-03T08:15:40.019Z,23.06
2023-05-03T08:16:43.136Z,23.06
2023-05-03T08:17:46.337Z,23.06
2023-05-03T08:18:49.683Z,23.06
2023-05-03T08:19:52.998Z,23.06
2023-05-03T08:20:56.391Z,23
2023-05-03T08:21:59.631Z,23.06
2023-05-03T08:23:02.961Z,23.06
2023-05-03T08:24:06.176Z,23.06
2023-05-03T08:25:09.432Z,23
2023-05-03T08:26:12.742Z,23
2023-05-03T08:27:16.071Z,23
2023-05-03T08:28:18.274Z,22.93
2023-05-03T08:29:21.617Z,22.93
2023-05-03T08:30:24.954Z,22.93
2023-05-03T08:31:28.305Z,22.93
2023-05-03T08:32:31.503Z,23
2023-05-03T08:33:34.847Z,23
2023-05-03T08:34:38.102Z,22.93
2023-05-03T08:35:40.407Z,22.87
2023-05-03T08:36:42.891Z,22.87
2023-05-03T08:37:45.932Z,22.87
2023-05-03T08:38:49.239Z,22.93
2023-05-03T08:39:52.669Z,22.93
2023-05-03T08:40:55.964Z,22.87
2023-05-03T08:41:59.232Z,22.93
2023-05-03T08:43:02.389Z,22.93
2023-05-03T08:44:05.876Z,22.93
2023-05-03T08:45:09.030Z,22.93
2023-05-03T08:46:12.518Z,22.93
2023-05-03T08:47:15.761Z,22.87
2023-05-03T08:48:19.022Z,22.87
2023-05-03T08:49:22.353Z,22.87
2023-05-03T08:50:24.605Z,22.81
2023-05-03T08:51:27.882Z,22.87
2023-05-03T08:52:31.327Z,22.81
2023-05-03T08:53:34.465Z,22.87
2023-05-03T08:54:37.762Z,22.81
2023-05-03T08:55:41.041Z,22.81
2023-05-03T08:56:44.341Z,22.87
2023-05-03T08:57:46.651Z,22.81
2023-05-03T08:58:49.102Z,22.81
2023-05-03T08:59:51.407Z,22.81
2023-05-03T09:00:53.595Z,22.81
2023-05-03T09:01:55.883Z,22.81
2023-05-03T09:02:58.261Z,22.81
2023-05-03T09:04:01.600Z,22.81
2023-05-03T09:05:04.804Z,22.81
2023-05-03T09:06:08.279Z,22.81
2023-05-03T09:07:11.436Z,22.81
2023-05-03T09:08:14.810Z,22.81
2023-05-03T09:09:17.978Z,22.81
2023-05-03T09:10:21.298Z,22.87
2023-05-03T09:11:24.613Z,22.81
2023-05-03T09:12:27.822Z,22.81
2023-05-03T09:13:31.151Z,22.81
2023-05-03T09:14:34.455Z,22.87
2023-05-03T09:15:37.905Z,22.87
2023-05-03T09:16:40.030Z,22.87
2023-05-03T09:17:43.378Z,22.87
2023-05-03T09:18:46.601Z,22.87
2023-05-03T09:19:49.882Z,22.87
2023-05-03T09:20:53.434Z,22.81
2023-05-03T09:21:56.601Z,22.87
2023-05-03T09:22:59.867Z,22.87
2023-05-03T09:24:02.216Z,22.81
2023-05-03T09:25:04.453Z,22.87
2023-05-03T09:26:06.697Z,22.87
2023-05-03T09:27:09.132Z,22.87
2023-05-03T09:28:12.778Z,22.87
2023-05-03T09:29:15.985Z,22.87
2023-05-03T09:30:19.216Z,22.87
2023-05-03T09:31:22.518Z,22.81
2023-05-03T09:32:26.024Z,22.87
2023-05-03T09:33:29.256Z,22.81
2023-05-03T09:34:32.563Z,22.87
2023-05-03T09:35:35.794Z,22.81
2023-05-03T09:36:39.164Z,22.87
2023-05-03T09:37:42.301Z,22.87
2023-05-03T09:38:45.752Z,22.87
2023-05-03T09:39:48.955Z,22.87
2023-05-03T09:40:51.204Z,22.81
2023-05-03T09:41:54.509Z,22.87
2023-05-03T09:42:57.793Z,22.87
2023-05-03T09:44:01.074Z,22.87
2023-05-03T09:46:07.690Z,22.87
2023-05-03T09:47:10.949Z,22.93
2023-05-03T09:48:14.268Z,22.87
2023-05-03T09:49:16.533Z,22.87
2023-05-03T09:50:18.926Z,22.87
2023-05-03T09:51:22.277Z,22.87
2023-05-03T09:52:24.566Z,22.87
2023-05-03T09:53:26.740Z,22.87
2023-05-03T09:54:30.202Z,22.87
2023-05-03T09:55:33.510Z,22.87
2023-05-03T09:56:36.790Z,22.87
2023-05-03T09:57:40.103Z,22.87
2023-05-03T09:58:43.319Z,22.87
2023-05-03T09:59:46.663Z,22.87
2023-05-03T10:00:49.841Z,22.87
2023-05-03T10:01:53.163Z,22.87
2023-05-03T10:02:56.523Z,22.87
2023-05-03T10:03:59.764Z,22.87
2023-05-03T10:05:03.078Z,22.87
2023-05-03T10:06:06.363Z,22.87
2023-05-03T10:07:08.754Z,22.87
2023-05-03T10:08:12.060Z,22.87
2023-05-03T10:09:15.154Z,22.81
2023-05-03T10:10:18.472Z,22.81
2023-05-03T10:11:21.820Z,22.87
2023-05-03T10:12:25.040Z,22.87
2023-05-03T10:13:28.312Z,22.87
2023-05-03T10:14:30.626Z,22.87
2023-05-03T10:15:33.095Z,22.87
2023-05-03T10:16:35.370Z,22.87
2023-05-03T10:17:37.680Z,22.87
2023-05-03T10:18:40.903Z,22.87
2023-05-03T10:19:44.290Z,22.81
2023-05-03T10:20:47.478Z,22.81
2023-05-03T10:21:50.943Z,22.81
2023-05-03T10:22:54.009Z,22.87
2023-05-03T10:23:57.394Z,22.81
2023-05-03T10:25:00.696Z,22.87
2023-05-03T10:26:03.990Z,22.87
2023-05-03T10:27:07.335Z,22.81
2023-05-03T10:28:10.583Z,22.87
2023-05-03T10:29:13.795Z,22.81
2023-05-03T10:30:17.056Z,22.81
2023-05-03T10:31:19.467Z,22.81
2023-05-03T10:32:21.789Z,22.87
2023-05-03T10:33:24.992Z,22.81
2023-05-03T10:34:28.359Z,22.87
2023-05-03T10:35:31.650Z,22.87
2023-05-03T10:36:34.922Z,22.87
2023-05-03T10:37:38.129Z,22.87
2023-05-03T10:38:40.578Z,22.87
2023-05-03T10:39:42.885Z,22.81
2023-05-03T10:40:45.209Z,22.75
2023-05-03T10:41:47.368Z,22.81
2023-05-03T10:42:50.745Z,22.81
2023-05-03T10:43:53.951Z,22.81
2023-05-03T10:44:57.270Z,22.81
2023-05-03T10:46:00.548Z,22.81
2023-05-03T10:47:03.813Z,22.87
2023-05-03T10:48:07.118Z,22.87
2023-05-03T10:49:10.418Z,22.87
2023-05-03T10:50:13.679Z,22.81
2023-05-03T10:51:16.995Z,22.81
2023-05-03T10:52:20.506Z,22.81
2023-05-03T10:53:23.722Z,22.81
2023-05-03T10:54:26.927Z,22.87
2023-05-03T10:55:29.214Z,22.87
2023-05-03T10:56:32.539Z,22.81
2023-05-03T10:57:35.854Z,22.81
2023-05-03T10:58:39.060Z,22.81
2023-05-03T10:59:42.350Z,22.81
2023-05-03T11:00:45.637Z,22.81
2023-05-03T11:01:48.927Z,22.81
2023-05-03T11:02:51.267Z,22.87
2023-05-03T11:03:53.549Z,22.87
2023-05-03T11:04:55.861Z,22.75
2023-05-03T11:05:58.206Z,22.87
2023-05-03T11:07:01.458Z,22.81
2023-05-03T11:08:04.751Z,22.87
2023-05-03T11:09:08.053Z,22.81
2023-05-03T11:10:11.401Z,22.87
2023-05-03T11:11:14.636Z,22.75
2023-05-03T11:12:17.966Z,22.87
2023-05-03T11:13:21.195Z,22.87
2023-05-03T11:14:24.563Z,22.81
2023-05-03T11:15:27.860Z,22.87
2023-05-03T11:16:31.078Z,22.81
2023-05-03T11:17:34.426Z,22.87
2023-05-03T11:18:37.690Z,22.87
2023-05-03T11:19:40.000Z,22.87
2023-05-03T11:20:43.311Z,22.87
2023-05-03T11:21:46.590Z,22.81
2023-05-03T11:22:50.036Z,22.81
2023-05-03T11:23:53.359Z,22.81
2023-05-03T11:24:56.503Z,22.87
2023-05-03T11:25:59.830Z,22.81
2023-05-03T11:27:02.796Z,22.81
2023-05-03T11:28:04.422Z,22.81
2023-05-03T11:29:07.650Z,22.87
2023-05-03T11:30:10.927Z,22.81
2023-05-03T11:31:14.223Z,22.81
2023-05-03T11:32:17.595Z,22.81
2023-05-03T11:33:20.917Z,22.81
2023-05-03T11:34:24.138Z,22.87
2023-05-03T11:35:27.431Z,22.87
2023-05-03T11:36:30.743Z,22.87
2023-05-03T11:37:34.112Z,22.87
2023-05-03T11:38:37.366Z,22.87
2023-05-03T11:39:40.550Z,22.87
2023-05-03T11:40:43.916Z,22.87
2023-05-03T11:41:46.166Z,22.81
2023-05-03T11:42:49.555Z,22.87
2023-05-03T11:43:52.785Z,22.81
2023-05-03T11:44:56.173Z,22.87
2023-05-03T11:45:59.354Z,22.87
2023-05-03T11:47:02.612Z,22.87
2023-05-03T11:48:05.911Z,22.87
2023-05-03T11:49:08.262Z,22.93
2023-05-03T11:50:10.529Z,22.93
2023-05-03T11:51:13.823Z,22.87
2023-05-03T11:52:17.214Z,22.87
2023-05-03T11:53:20.491Z,22.87
2023-05-03T11:54:23.718Z,22.87
2023-05-03T11:55:27.045Z,22.87
2023-05-03T11:56:30.309Z,22.87
2023-05-03T11:57:33.750Z,22.87
2023-05-03T11:58:36.863Z,22.87
2023-05-03T11:59:40.169Z,22.87
2023-05-03T12:00:43.464Z,22.87
2023-05-03T12:01:46.901Z,22.87
2023-05-03T12:02:50.172Z,22.87
2023-05-03T12:03:52.418Z,22.87
2023-05-03T12:04:55.629Z,22.93
2023-05-03T12:05:59.130Z,22.87
2023-05-03T12:07:02.227Z,22.87
2023-05-03T12:08:05.554Z,22.93
2023-05-03T12:09:08.810Z,22.87
2023-05-03T12:10:12.102Z,22.87
2023-05-03T12:11:14.436Z,22.87
2023-05-03T12:12:16.829Z,22.93
2023-05-03T12:13:19.039Z,22.93
2023-05-03T12:14:21.351Z,22.93
2023-05-03T12:15:23.777Z,22.87
2023-05-03T12:16:26.036Z,22.87
2023-05-03T12:17:29.304Z,22.93
2023-05-03T12:18:32.551Z,22.93
2023-05-03T12:19:35.854Z,23
2023-05-03T12:20:39.161Z,22.93
2023-05-03T12:21:42.446Z,22.93
2023-05-03T12:22:45.719Z,22.93
2023-05-03T12:23:49.061Z,22.87
2023-05-03T12:24:52.405Z,22.87
2023-05-03T12:25:55.678Z,23
2023-05-03T12:26:58.978Z,23
2023-05-03T12:28:02.255Z,23
2023-05-03T12:29:05.488Z,23
2023-05-03T12:30:07.775Z,23
2023-05-03T12:31:11.063Z,22.93
2023-05-03T12:32:14.360Z,23.06
2023-05-03T12:33:17.659Z,23.06
2023-05-03T12:34:21.071Z,23
2023-05-03T12:35:24.300Z,23
2023-05-03T12:36:27.537Z,23.06
2023-05-03T12:37:29.837Z,23.06
2023-05-03T12:38:32.227Z,23
2023-05-03T12:39:34.531Z,23.06
2023-05-03T12:40:36.764Z,23.06
2023-05-03T12:41:40.064Z,23.06
2023-05-03T12:42:43.346Z,23.06
2023-05-03T12:43:46.642Z,23.06
2023-05-03T12:44:49.949Z,23.06
2023-05-03T12:45:53.354Z,23.06
2023-05-03T12:46:56.515Z,23.06
2023-05-03T12:47:59.818Z,23.06
2023-05-03T12:49:03.133Z,23.06
2023-05-03T12:50:06.441Z,23.06
2023-05-03T12:51:09.834Z,23.06
2023-05-03T12:52:12.986Z,23.06
2023-05-03T12:53:16.281Z,23.06
2023-05-03T12:54:19.960Z,23.06
2023-05-03T12:55:22.275Z,23.06
2023-05-03T12:56:25.562Z,23.06
2023-05-03T12:57:28.910Z,23.06
2023-05-03T12:58:32.185Z,23.12
2023-05-03T12:59:35.437Z,23.06
2023-05-03T13:00:38.733Z,23.06
2023-05-03T13:01:41.079Z,23.06
2023-05-03T13:02:43.414Z,23.06
2023-05-03T13:03:45.690Z,23.06
2023-05-03T13:04:48.056Z,23.06
2023-05-03T13:05:51.262Z,23.06
2023-05-03T13:06:54.552Z,23.06
2023-05-03T13:07:58.002Z,23.06
2023-05-03T13:09:01.158Z,23.06
2023-05-03T13:10:04.555Z,23.06
2023-05-03T13:11:07.718Z,23.06
2023-05-03T13:12:11.003Z,23.06
2023-05-03T13:13:14.351Z,23.12
2023-05-03T13:14:17.706Z,23.12
2023-05-03T13:15:20.897Z,23.06
2023-05-03T13:17:27.571Z,23.12
2023-05-03T13:18:29.770Z,23.12
2023-05-03T13:19:33.059Z,23.06
2023-05-03T13:20:36.360Z,23.06
2023-05-03T13:21:39.658Z,23.12
2023-05-03T13:22:43.140Z,23.06
2023-05-03T13:23:46.242Z,23.12
2023-05-03T13:24:49.560Z,23.12
2023-05-03T13:25:52.815Z,23.12
2023-05-03T13:26:55.180Z,23.18
2023-05-03T13:27:57.444Z,23.18
2023-05-03T13:29:00.786Z,23.12
2023-05-03T13:30:04.215Z,23.18
2023-05-03T13:31:07.352Z,23.18
2023-05-03T13:32:10.617Z,23.18
2023-05-03T13:33:14.295Z,23.12
2023-05-03T13:34:17.500Z,23.18
2023-05-03T13:35:20.973Z,23.18
2023-05-03T13:36:24.290Z,23.18
2023-05-03T13:37:27.362Z,23.18
2023-05-03T13:38:30.724Z,23.18
2023-05-03T13:39:33.956Z,23.18
2023-05-03T13:40:37.293Z,23.25
2023-05-03T13:41:39.606Z,23.25
2023-05-03T13:42:42.928Z,23.25